createdAt,value
2022-09-28T00:01:08.279Z,98560.72
2022-09-28T00:03:35.675Z,98558.00
2022-09-28T00:06:04.715Z,98557.81
2022-09-28T00:08:31.640Z,98547.72
2022-09-28T00:10:58.511Z,98548.34
2022-09-28T00:13:25.319Z,98534.50
2022-09-28T00:16:07.845Z,98542.94
2022-09-28T00:18:36.299Z,98535.59
2022-09-28T00:21:14.449Z,98530.69
2022-09-28T00:24:00.624Z,98521.84
2022-09-28T00:26:28.385Z,98521.09
2022-09-28T00:28:58.626Z,98518.50
2022-09-28T00:31:29.508Z,98520.00
2022-09-28T00:34:00.230Z,98506.88
2022-09-28T00:36:28.842Z,98514.03
2022-09-28T00:38:56.890Z,98509.94
2022-09-28T00:41:27.840Z,98508.00
2022-09-28T00:44:26.472Z,98506.22
2022-09-28T00:47:26.868Z,98505.41
2022-09-28T00:50:20.690Z,98499.34
2022-09-28T00:53:25.538Z,98490.63
2022-09-28T00:55:54.767Z,98490.53
2022-09-28T00:58:28.614Z,98483.75
2022-09-28T01:00:57.951Z,98478.44
2022-09-28T01:03:26.411Z,98473.97
2022-09-28T01:05:53.564Z,98472.59
2022-09-28T01:08:22.107Z,98474.44
2022-09-28T01:10:49.350Z,98475.75
2022-09-28T01:13:20.289Z,98459.38
2022-09-28T01:15:52.973Z,98455.03
2022-09-28T01:18:27.981Z,98448.69
2022-09-28T01:21:02.311Z,98439.41
2022-09-28T01:23:42.798Z,98439.22
2022-09-28T01:26:27.640Z,98435.78
2022-09-28T01:29:06.225Z,98430.19
2022-09-28T01:31:36.378Z,98418.28
2022-09-28T01:34:19.088Z,98406.97
2022-09-28T01:36:53.625Z,98400.19
2022-09-28T01:39:26.492Z,98400.09
2022-09-28T01:41:59.798Z,98387.06
2022-09-28T01:44:30.181Z,98389.38
2022-09-28T01:47:03.469Z,98391.75
2022-09-28T01:50:20.071Z,98402.06
2022-09-28T01:52:53.603Z,98391.66
2022-09-28T01:55:29.559Z,98386.66
2022-09-28T01:58:14.124Z,98388.13
2022-09-28T02:00:44.960Z,98390.53
2022-09-28T02:03:23.529Z,98386.16
2022-09-28T02:06:01.456Z,98383.56
2022-09-28T02:08:43.251Z,98382.63
2022-09-28T02:11:14.287Z,98379.72
2022-09-28T02:13:46.674Z,98370.03
2022-09-28T02:16:31.125Z,98364.19
2022-09-28T02:18:58.324Z,98365.13
2022-09-28T02:21:32.679Z,98367.25
2022-09-28T02:24:20.668Z,98375.06
2022-09-28T02:26:50.646Z,98377.47
2022-09-28T02:29:17.486Z,98372.13
2022-09-28T02:31:44.043Z,98373.06
2022-09-28T02:34:11.020Z,98363.47
2022-09-28T02:36:38.292Z,98364.63
2022-09-28T02:39:04.972Z,98349.22
2022-09-28T02:41:54.975Z,98353.19
2022-09-28T02:44:57.615Z,98362.53
2022-09-28T02:47:33.341Z,98360.88
2022-09-28T02:50:25.140Z,98363.38
2022-09-28T02:53:06.924Z,98359.94
2022-09-28T02:56:03.673Z,98361.41
2022-09-28T02:58:42.354Z,98356.84
2022-09-28T03:01:30.057Z,98354.44
2022-09-28T03:04:08.729Z,98356.94
2022-09-28T03:06:41.972Z,98353.69
2022-09-28T03:09:51.087Z,98340.03
2022-09-28T03:12:20.647Z,98346.22
2022-09-28T03:14:47.716Z,98346.00
2022-09-28T03:17:14.273Z,98333.91
2022-09-28T03:19:40.675Z,98332.56
2022-09-28T03:22:08.182Z,98347.56
2022-09-28T03:24:34.710Z,98346.81
2022-09-28T03:27:02.103Z,98343.28
2022-09-28T03:29:31.245Z,98351.53
2022-09-28T03:32:01.498Z,98346.81
2022-09-28T03:34:28.483Z,98346.81
2022-09-28T03:36:55.460Z,98345.06
2022-09-28T03:39:22.106Z,98346.91
2022-09-28T03:41:48.491Z,98346.22
2022-09-28T03:44:17.327Z,98339.22
2022-09-28T03:46:44.036Z,98342.78
2022-09-28T03:49:10.904Z,98348.59
2022-09-28T03:51:37.609Z,98349.75
2022-09-28T03:54:04.328Z,98354.03
2022-09-28T03:56:31.012Z,98342.16
2022-09-28T03:58:57.361Z,98343.19
2022-09-28T04:01:25.193Z,98351.53
2022-09-28T04:03:56.087Z,98341.00
2022-09-28T04:06:24.518Z,98341.31
2022-09-28T04:08:51.807Z,98340.28
2022-09-28T04:11:18.486Z,98338.81
2022-09-28T04:13:49.477Z,98343.19
2022-09-28T04:16:18.027Z,98342.34
2022-09-28T04:18:53.286Z,98355.78
2022-09-28T04:21:37.575Z,98351.53
2022-09-28T04:24:12.151Z,98353.06
2022-09-28T04:26:39.054Z,98353.91
2022-09-28T04:29:19.420Z,98354.84
2022-09-28T04:31:55.125Z,98352.13
2022-09-28T04:34:40.682Z,98350.47
2022-09-28T04:37:09.872Z,98347.66
2022-09-28T04:39:38.055Z,98351.53
2022-09-28T04:42:05.837Z,98351.63
2022-09-28T04:44:32.488Z,98359.00
2022-09-28T04:47:05.411Z,98364.63
2022-09-28T04:49:32.052Z,98356.72
2022-09-28T04:52:12.549Z,98357.44
2022-09-28T04:54:42.338Z,98359.00
2022-09-28T04:57:08.983Z,98354.13
2022-09-28T04:59:37.553Z,98351.44
2022-09-28T05:02:05.197Z,98355.91
2022-09-28T05:04:41.107Z,98360.03
2022-09-28T05:07:31.092Z,98363.47
2022-09-28T05:10:00.544Z,98370.03
2022-09-28T05:12:27.200Z,98372.66
2022-09-28T05:14:54.203Z,98376.09
2022-09-28T05:17:20.682Z,98372.84
2022-09-28T05:20:02.656Z,98381.19
2022-09-28T05:22:29.477Z,98379.00
2022-09-28T05:24:56.299Z,98385.56
2022-09-28T05:27:23.898Z,98383.47
2022-09-28T05:29:59.539Z,98385.56
2022-09-28T05:32:59.716Z,98386.59
2022-09-28T05:35:40.990Z,98389.94
2022-09-28T05:38:07.911Z,98393.28
2022-09-28T05:40:34.534Z,98399.41
2022-09-28T05:43:02.059Z,98395.78
2022-09-28T05:45:29.746Z,98399.09
2022-09-28T05:47:56.624Z,98409.63
2022-09-28T05:50:23.844Z,98405.56
2022-09-28T05:53:00.893Z,98403.38
2022-09-28T05:55:27.991Z,98401.81
2022-09-28T05:57:58.384Z,98402.75
2022-09-28T06:00:25.329Z,98411.41
2022-09-28T06:03:08.987Z,98411.19
2022-09-28T06:05:38.694Z,98414.63
2022-09-28T06:08:07.009Z,98416.94
2022-09-28T06:10:34.202Z,98417.56
2022-09-28T06:13:01.677Z,98420.75
2022-09-28T06:15:30.945Z,98427.34
2022-09-28T06:18:03.449Z,98418.78
2022-09-28T06:20:42.334Z,98428.41
2022-09-28T06:23:13.751Z,98422.78
2022-09-28T06:25:40.540Z,98431.41
2022-09-28T06:28:10.462Z,98439.81
2022-09-28T06:30:38.432Z,98442.13
2022-09-28T06:33:12.643Z,98443.69
2022-09-28T06:35:40.689Z,98450.28
2022-09-28T06:38:10.514Z,98449.91
2022-09-28T06:40:37.478Z,98455.72
2022-09-28T06:43:10.046Z,98462.00
2022-09-28T06:45:55.323Z,98452.75
2022-09-28T06:48:25.452Z,98467.13
2022-09-28T06:50:51.937Z,98468.97
2022-09-28T06:53:32.413Z,98464.09
2022-09-28T06:56:10.543Z,98469.91
2022-09-28T06:58:37.121Z,98465.34
2022-09-28T07:01:04.324Z,98465.38
2022-09-28T07:03:40.634Z,98472.03
2022-09-28T07:06:24.468Z,98473.13
2022-09-28T07:09:31.536Z,98484.28
2022-09-28T07:12:20.614Z,98487.72
2022-09-28T07:14:56.137Z,98491.06
2022-09-28T07:17:24.935Z,98497.41
2022-09-28T07:19:52.957Z,98496.28
2022-09-28T07:22:26.980Z,98501.38
2022-09-28T07:25:01.549Z,98500.84
2022-09-28T07:28:00.137Z,98501.91
2022-09-28T07:30:35.947Z,98510.13
2022-09-28T07:33:09.599Z,98502.63
2022-09-28T07:35:57.803Z,98509.28
2022-09-28T07:38:29.460Z,98514.41
2022-09-28T07:41:12.306Z,98514.34
2022-09-28T07:43:45.560Z,98523.97
2022-09-28T07:46:12.381Z,98528.53
2022-09-28T07:48:46.021Z,98531.06
2022-09-28T07:51:34.553Z,98537.38
2022-09-28T07:54:19.872Z,98542.47
2022-09-28T07:57:08.505Z,98542.06
2022-09-28T07:59:55.615Z,98547.94
2022-09-28T08:02:40.525Z,98551.72
2022-09-28T08:05:10.228Z,98554.72
2022-09-28T08:07:38.194Z,98555.47
2022-09-28T08:10:08.544Z,98559.94
2022-09-28T08:12:59.184Z,98556.69
2022-09-28T08:15:50.974Z,98561.25
2022-09-28T08:18:36.811Z,98570.59
2022-09-28T08:21:23.675Z,98570.47
2022-09-28T08:23:51.639Z,98569.44
2022-09-28T08:26:18.135Z,98572.91
2022-09-28T08:28:46.688Z,98569.84
2022-09-28T08:31:43.931Z,98568.88
2022-09-28T08:34:22.629Z,98570.03
2022-09-28T08:37:15.121Z,98576.72
2022-09-28T08:39:50.697Z,98582.78
2022-09-28T08:42:41.872Z,98577.09
2022-09-28T08:45:33.599Z,98580.00
2022-09-28T08:48:40.051Z,98580.00
2022-09-28T08:51:33.780Z,98588.34
2022-09-28T08:54:44.755Z,98584.69
2022-09-28T08:57:36.739Z,98590.44
2022-09-28T09:00:09.608Z,98588.06
2022-09-28T09:02:39.917Z,98595.28
2022-09-28T09:05:18.969Z,98586.69
2022-09-28T09:08:12.763Z,98594.09
2022-09-28T09:11:13.205Z,98599.53
2022-09-28T09:13:59.216Z,98596.34
2022-09-28T09:16:59.835Z,98593.25
2022-09-28T09:20:05.520Z,98589.78
2022-09-28T09:23:00.082Z,98605.00
2022-09-28T09:25:38.612Z,98598.69
2022-09-28T09:28:13.818Z,98601.84
2022-09-28T09:30:59.696Z,98608.97
2022-09-28T09:33:53.788Z,98618.25
2022-09-28T09:36:39.032Z,98611.59
2022-09-28T09:40:02.564Z,98610.53
2022-09-28T09:43:14.157Z,98609.47
2022-09-28T09:46:10.852Z,98612.56
2022-09-28T09:49:29.976Z,98610.47
2022-09-28T09:52:14.592Z,98606.50
2022-09-28T09:55:30.124Z,98607.16
2022-09-28T09:58:21.703Z,98614.44
2022-09-28T10:00:58.603Z,98618.34
2022-09-28T10:03:48.182Z,98623.25
2022-09-28T10:06:25.093Z,98621.22
2022-09-28T10:09:39.062Z,98616.38
2022-09-28T10:12:39.090Z,98618.94
2022-09-28T10:15:07.700Z,98623.84
2022-09-28T10:17:46.621Z,98616.72
2022-09-28T10:20:34.597Z,98623.50
2022-09-28T10:23:31.106Z,98618.25
2022-09-28T10:26:03.501Z,98623.25
2022-09-28T10:28:40.536Z,98620.53
2022-09-28T10:31:34.541Z,98629.69
2022-09-28T10:34:01.911Z,98629.38
2022-09-28T10:36:28.960Z,98627.72
2022-09-28T10:38:57.800Z,98632.53
2022-09-28T10:41:28.784Z,98633.09
2022-09-28T10:44:08.702Z,98629.28
2022-09-28T10:47:05.834Z,98621.38
2022-09-28T10:49:46.839Z,98623.28
2022-09-28T10:52:33.278Z,98630.47
2022-09-28T10:55:01.049Z,98630.13
2022-09-28T10:57:36.996Z,98628.31
2022-09-28T11:00:31.602Z,98626.09
2022-09-28T11:03:29.691Z,98611.72
2022-09-28T11:06:03.794Z,98616.41
2022-09-28T11:08:36.120Z,98615.47
2022-09-28T11:11:14.791Z,98622.00
2022-09-28T11:13:48.274Z,98621.97
2022-09-28T11:16:29.584Z,98618.25
2022-09-28T11:18:59.106Z,98621.72
2022-09-28T11:21:28.380Z,98618.91
2022-09-28T11:24:07.458Z,98618.03
2022-09-28T11:26:44.004Z,98622.84
2022-09-28T11:29:39.007Z,98620.41
2022-09-28T11:32:18.418Z,98616.81
2022-09-28T11:35:04.468Z,98610.88
2022-09-28T11:37:47.219Z,98616.69
2022-09-28T11:40:35.461Z,98608.13
2022-09-28T11:43:29.428Z,98611.66
2022-09-28T11:46:32.286Z,98617.44
2022-09-28T11:49:41.639Z,98612.19
2022-09-28T11:52:18.842Z,98615.66
2022-09-28T11:54:59.201Z,98606.56
2022-09-28T11:57:29.328Z,98603.97
2022-09-28T12:00:04.210Z,98609.09
2022-09-28T12:02:38.989Z,98608.03
2022-09-28T12:05:25.134Z,98613.75
2022-09-28T12:08:02.115Z,98617.66
2022-09-28T12:11:09.970Z,98625.78
2022-09-28T12:13:59.756Z,98625.66
2022-09-28T12:19:36.315Z,98618.78
2022-09-28T12:22:17.572Z,98618.88
2022-09-28T12:24:47.490Z,98615.41
2022-09-28T12:27:40.325Z,98622.44
2022-09-28T12:30:16.797Z,98621.00
2022-09-28T12:33:06.853Z,98624.41
2022-09-28T12:35:56.390Z,98625.53
2022-09-28T12:38:38.427Z,98618.66
2022-09-28T12:41:28.611Z,98623.47
2022-09-28T12:44:21.899Z,98622.78
2022-09-28T12:47:28.909Z,98626.16
2022-09-28T12:50:41.073Z,98621.28
2022-09-28T12:53:41.740Z,98626.78
2022-09-28T12:56:21.498Z,98621.75
2022-09-28T12:59:05.212Z,98615.47
2022-09-28T13:02:01.440Z,98621.88
2022-09-28T13:04:52.961Z,98620.66
2022-09-28T13:07:50.708Z,98626.59
2022-09-28T13:10:32.555Z,98616.19
2022-09-28T13:13:17.347Z,98614.94
2022-09-28T13:15:56.530Z,98613.41
2022-09-28T13:18:33.526Z,98610.13
2022-09-28T13:21:11.143Z,98618.44
2022-09-28T13:23:42.696Z,98605.94
2022-09-28T13:26:24.684Z,98606.66
2022-09-28T13:28:54.746Z,98614.09
2022-09-28T13:31:30.889Z,98604.03
2022-09-28T13:34:03.566Z,98602.00
2022-09-28T13:36:32.955Z,98600.00
2022-09-28T13:39:00.655Z,98601.00
2022-09-28T13:41:40.842Z,98607.47
2022-09-28T13:44:13.437Z,98605.22
2022-09-28T13:46:45.914Z,98601.25
2022-09-28T13:49:40.231Z,98604.28
2022-09-28T13:52:14.926Z,98617.16
2022-09-28T13:54:50.623Z,98603.47
2022-09-28T13:57:25.197Z,98614.13
2022-09-28T13:59:56.007Z,98600.78
2022-09-28T14:02:36.665Z,98608.34
2022-09-28T14:05:34.261Z,98603.47
2022-09-28T14:08:11.370Z,98620.69
2022-09-28T14:10:51.597Z,98614.63
2022-09-28T14:13:43.362Z,98618.50
2022-09-28T14:16:23.488Z,98622.25
2022-09-28T14:18:58.371Z,98620.63
2022-09-28T14:21:43.134Z,98626.59
2022-09-28T14:24:32.837Z,98624.63
2022-09-28T14:27:29.171Z,98627.69
2022-09-28T14:30:28.210Z,98631.16
2022-09-28T14:32:59.736Z,98629.88
2022-09-28T14:35:33.622Z,98629.97
2022-09-28T14:38:35.306Z,98634.44
2022-09-28T14:41:12.847Z,98636.00
2022-09-28T14:43:45.695Z,98629.38
2022-09-28T14:46:13.001Z,98639.47
2022-09-28T14:49:03.777Z,98635.50
2022-09-28T14:51:30.219Z,98640.00
2022-09-28T14:54:02.182Z,98639.78
2022-09-28T14:56:33.030Z,98638.22
2022-09-28T14:59:00.494Z,98644.03
2022-09-28T15:01:27.681Z,98643.91
2022-09-28T15:03:56.981Z,98644.31
2022-09-28T15:06:24.432Z,98643.75
2022-09-28T15:08:51.366Z,98639.47
2022-09-28T15:11:26.236Z,98648.72
2022-09-28T15:14:06.209Z,98646.97
2022-09-28T15:16:33.299Z,98645.16
2022-09-28T15:19:35.945Z,98648.75
2022-09-28T15:22:02.524Z,98645.41
2022-09-28T15:24:33.695Z,98649.72
2022-09-28T15:27:02.015Z,98653.59
2022-09-28T15:29:31.237Z,98654.94
2022-09-28T15:31:58.897Z,98658.13
2022-09-28T15:34:51.446Z,98661.03
2022-09-28T15:37:22.741Z,98653.41
2022-09-28T15:39:51.242Z,98653.78
2022-09-28T15:42:18.604Z,98655.41
2022-09-28T15:45:14.374Z,98655.84
2022-09-28T15:47:43.475Z,98650.53
2022-09-28T15:50:29.858Z,98651.34
2022-09-28T15:53:05.665Z,98654.56
2022-09-28T15:55:34.351Z,98661.75
2022-09-28T15:58:22.248Z,98659.34
2022-09-28T16:00:54.969Z,98660.81
2022-09-28T16:03:28.031Z,98664.41
2022-09-28T16:05:57.425Z,98665.22
2022-09-28T16:08:42.207Z,98655.78
2022-09-28T16:11:27.205Z,98661.13
2022-09-28T16:14:08.876Z,98660.69
2022-09-28T16:16:52.958Z,98667.41
2022-09-28T16:19:29.412Z,98666.13
2022-09-28T16:22:02.351Z,98670.78
2022-09-28T16:24:33.277Z,98671.75
2022-09-28T16:27:03.114Z,98668.63
2022-09-28T16:29:41.419Z,98667.59
2022-09-28T16:32:26.650Z,98673.09
2022-09-28T16:35:19.590Z,98674.75
2022-09-28T16:37:57.526Z,98675.06
2022-09-28T16:40:24.539Z,98679.47
2022-09-28T16:42:53.812Z,98685.59
2022-09-28T16:45:23.143Z,98681.38
2022-09-28T16:47:53.387Z,98686.06
2022-09-28T16:50:21.227Z,98677.22
2022-09-28T16:53:09.229Z,98682.31
2022-09-28T16:55:40.955Z,98685.31
2022-09-28T16:58:08.116Z,98685.41
2022-09-28T17:00:35.138Z,98690.47
2022-09-28T17:03:02.159Z,98690.41
2022-09-28T17:05:29.388Z,98692.19
2022-09-28T17:08:03.920Z,98696.97
2022-09-28T17:10:50.070Z,98690.53
2022-09-28T17:13:35.850Z,98690.19
2022-09-28T17:16:43.575Z,98699.84
2022-09-28T17:19:25.842Z,98702.31
2022-09-28T17:21:52.737Z,98703.38
2022-09-28T17:24:20.148Z,98705.94
2022-09-28T17:26:48.950Z,98705.31
2022-09-28T17:29:15.972Z,98701.00
2022-09-28T17:31:43.720Z,98707.88
2022-09-28T17:34:12.261Z,98718.06
2022-09-28T17:36:41.254Z,98711.28
2022-09-28T17:39:12.616Z,98717.75
2022-09-28T17:41:39.792Z,98721.34
2022-09-28T17:44:06.656Z,98721.34
2022-09-28T17:46:36.625Z,98723.50
2022-09-28T17:49:05.825Z,98723.31
2022-09-28T17:51:37.353Z,98720.28
2022-09-28T17:54:06.660Z,98731.47
2022-09-28T17:56:34.305Z,98740.44
2022-09-28T17:59:04.789Z,98736.22
2022-09-28T18:01:34.172Z,98746.03
2022-09-28T18:04:03.165Z,98742.28
2022-09-28T18:06:30.049Z,98756.19
2022-09-28T18:08:59.714Z,98775.44
2022-09-28T18:11:26.282Z,98779.19
2022-09-28T18:13:52.810Z,98773.78
2022-09-28T18:16:19.491Z,98775.03
2022-09-28T18:18:47.676Z,98769.16
2022-09-28T18:21:14.799Z,98770.41
2022-09-28T18:23:41.523Z,98755.69
2022-09-28T18:26:13.393Z,98746.81
2022-09-28T18:28:40.168Z,98753.31
2022-09-28T18:31:11.777Z,98749.75
2022-09-28T18:33:40.653Z,98754.88
2022-09-28T18:36:07.688Z,98758.53
2022-09-28T18:38:38.059Z,98757.81
2022-09-28T18:41:15.357Z,98756.97
2022-09-28T18:43:48.742Z,98763.19
2022-09-28T18:46:15.982Z,98762.59
2022-09-28T18:48:43.777Z,98765.13
2022-09-28T18:51:13.257Z,98770.19
2022-09-28T18:53:40.413Z,98772.94
2022-09-28T18:56:18.347Z,98773.13
2022-09-28T18:58:46.139Z,98775.94
2022-09-28T19:01:31.383Z,98771.44
2022-09-28T19:04:03.242Z,98777.91
2022-09-28T19:06:31.376Z,98785.13
2022-09-28T19:08:58.529Z,98775.38
2022-09-28T19:11:25.610Z,98777.44
2022-09-28T19:13:53.177Z,98784.88
2022-09-28T19:16:30.179Z,98783.38
2022-09-28T19:18:58.317Z,98784.00
2022-09-28T19:21:25.109Z,98785.00
2022-09-28T19:23:54.444Z,98780.34
2022-09-28T19:26:23.706Z,98801.44
2022-09-28T19:28:52.971Z,98791.09
2022-09-28T19:31:19.988Z,98792.88
2022-09-28T19:33:46.779Z,98794.00
2022-09-28T19:36:24.453Z,98798.00
2022-09-28T19:38:52.742Z,98794.28
2022-09-28T19:41:44.290Z,98784.66
2022-09-28T19:44:24.254Z,98801.13
2022-09-28T19:46:55.190Z,98794.63
2022-09-28T19:49:23.284Z,98810.53
2022-09-28T19:52:11.504Z,98809.78
2022-09-28T19:54:38.231Z,98819.38
2022-09-28T19:57:07.567Z,98814.91
2022-09-28T19:59:35.477Z,98822.91
2022-09-28T20:02:03.067Z,98823.00
2022-09-28T20:04:29.901Z,98831.28
2022-09-28T20:06:56.482Z,98827.19
2022-09-28T20:09:22.880Z,98832.97
2022-09-28T20:11:51.648Z,98832.41
2022-09-28T20:14:18.816Z,98839.97
2022-09-28T20:16:48.090Z,98834.53
2022-09-28T20:19:15.161Z,98839.03
2022-09-28T20:21:41.568Z,98830.47
2022-09-28T20:24:10.560Z,98843.78
2022-09-28T20:26:37.743Z,98834.09
2022-09-28T20:29:05.754Z,98829.91
2022-09-28T20:31:32.501Z,98837.53
2022-09-28T20:33:59.237Z,98846.28
2022-09-28T20:36:25.912Z,98850.94
2022-09-28T20:38:54.635Z,98850.94
2022-09-28T20:41:23.297Z,98852.25
2022-09-28T20:44:04.148Z,98854.09
2022-09-28T20:46:31.850Z,98851.41
2022-09-28T20:48:59.413Z,98854.66
2022-09-28T20:51:25.850Z,98858.28
2022-09-28T20:53:54.879Z,98851.31
2022-09-28T20:56:24.179Z,98859.97
2022-09-28T20:58:51.564Z,98851.97
2022-09-28T21:01:26.769Z,98853.72
2022-09-28T21:04:01.993Z,98855.97
2022-09-28T21:06:31.456Z,98848.44
2022-09-28T21:08:58.855Z,98855.69
2022-09-28T21:11:27.559Z,98851.19
2022-09-28T21:13:56.978Z,98856.41
2022-09-28T21:16:24.476Z,98854.84
2022-09-28T21:18:51.272Z,98858.41
2022-09-28T21:21:20.042Z,98850.25
2022-09-28T21:23:47.482Z,98855.88
2022-09-28T21:26:18.749Z,98850.34
2022-09-28T21:28:46.127Z,98850.75
2022-09-28T21:31:14.089Z,98850.47
2022-09-28T21:33:40.799Z,98847.88
2022-09-28T21:36:08.216Z,98861.84
2022-09-28T21:38:34.673Z,98855.38
2022-09-28T21:41:01.348Z,98848.22
2022-09-28T21:43:29.511Z,98848.72
2022-09-28T21:45:58.006Z,98842.75
2022-09-28T21:48:27.233Z,98848.72
2022-09-28T21:50:58.757Z,98846.28
2022-09-28T21:53:27.398Z,98848.81
2022-09-28T21:55:53.841Z,98850.84
2022-09-28T21:58:25.065Z,98854.19
2022-09-28T22:01:05.774Z,98847.03
2022-09-28T22:03:35.398Z,98853.91
2022-09-28T22:06:03.804Z,98847.03
2022-09-28T22:08:30.555Z,98852.34
2022-09-28T22:11:03.593Z,98859.03
2022-09-28T22:13:32.748Z,98852.53
2022-09-28T22:15:59.407Z,98859.78
2022-09-28T22:18:27.786Z,98854.66
2022-09-28T22:21:02.343Z,98853.06
2022-09-28T22:23:29.688Z,98848.69
2022-09-28T22:26:20.079Z,98853.63
2022-09-28T22:28:55.364Z,98851.56
2022-09-28T22:31:25.276Z,98848.69
2022-09-28T22:33:52.085Z,98856.78
2022-09-28T22:36:19.861Z,98846.84
2022-09-28T22:38:48.664Z,98848.97
2022-09-28T22:41:18.049Z,98845.16
2022-09-28T22:43:44.963Z,98850.72
2022-09-28T22:46:16.801Z,98843.19
2022-09-28T22:48:48.754Z,98842.34
2022-09-28T22:51:16.351Z,98842.25
2022-09-28T22:53:43.544Z,98850.06
2022-09-28T22:56:15.970Z,98847.66
2022-09-28T22:58:44.760Z,98846.19
2022-09-28T23:01:14.359Z,98846.19
2022-09-28T23:03:42.079Z,98839.47
2022-09-28T23:06:09.763Z,98840.88
2022-09-28T23:08:36.833Z,98843.28
2022-09-28T23:11:06.123Z,98840.78
2022-09-28T23:13:32.853Z,98847.56
2022-09-28T23:16:02.162Z,98841.44
2022-09-28T23:18:31.315Z,98848.19
2022-09-28T23:21:01.463Z,98846.06
2022-09-28T23:23:28.201Z,98852.22
2022-09-28T23:25:55.435Z,98846.25
2022-09-28T23:28:24.279Z,98847.34
2022-09-28T23:30:51.902Z,98854.63
2022-09-28T23:33:20.409Z,98852.28
2022-09-28T23:35:47.349Z,98853.41
2022-09-28T23:38:18.137Z,98851.63
2022-09-28T23:40:48.086Z,98843.81
2022-09-28T23:43:15.283Z,98850.03
2022-09-28T23:45:45.644Z,98846.50
2022-09-28T23:48:14.718Z,98847.53
2022-09-28T23:50:43.346Z,98846.78
2022-09-28T23:53:10.881Z,98850.31
2022-09-28T23:55:38.118Z,98851.91
2022-09-28T23:58:04.519Z,98850.19
